Aérodrome :
LOGIN :

S'inscrire | Disclaimer

   EN    FR    IT 

 










Légende :    VFR   VFR Marginal   IFR   IFR Intensif   IFR Très Intensif
Visi : 
Plafond : 
>= 8 km
>= 3000ft
5 à 8 km
1000 à 3000 ft
1500m à 5 km
500 à 1000 ft
800 à 1500m
200 à 500 ft
< 800m
< 200 ft
Symboles :   Orages  Brouillard  Fortes neiges  Fortes précipitations  Vent > 20 kt
SIGMETs :   Divers  Orages  Givrage  Turbulence  Onde Orograph.  Cendres Volcan.







- Altitude de l'aérodrome : 218 ft
- Code IATA : LBG
- Voir les cartes d'approche


LFPB - Paris / Le Bourget

DERNIER METAR :
  • 131300Z AUTO 22011KT 9999 BKN013 OVC018 09/07 Q1003 BECMG 21020G30KT 4000 -RA OVC007

METARs EXPIRÉS :
  • 131230Z AUTO 22012KT 190V250 9999 OVC013 09/07 Q1004 BECMG 21020G30KT 4000 -RA OVC007
  • 131200Z AUTO 22010KT 9999 BKN012 OVC064 08/07 Q1004 TEMPO 1800 -DZ BECMG OVC005
  • 131130Z AUTO 22009KT 9999 OVC011 07/07 Q1005 TEMPO 1800 -DZ BECMG OVC005
  • 131100Z AUTO 23008KT 200V260 9000 OVC007 07/06 Q1005 BECMG 20015G25KT SCT015 BKN030
  • 131030Z AUTO 22008KT 190V250 9999 OVC010 07/06 Q1006 BECMG 20015G25KT SCT015 BKN030

TAF AMD TAF LFPB
Valide du 13 à 12h jusqu'au 14 à 12h UTC


131206Z 1312/1412 23012KT 9999 BKN009
PROB40
TEMPO 1312/1314 BKN016
BECMG 1314/1316 21020G30KT 4000 -RA OVC007
PROB40
TEMPO 1318/1320 21020G40KT 2000 RA
BECMG 1321/1322 9999 NSW SCT020
TEMPO 1322/1412 4000 SHRA BKN020TCU
PROB40
TEMPO 1323/1403 25020G40KT 2000 SHRA SCT020CB
PROB30
TEMPO 1400/1402 25030G50KT TSRA SCT015CB
PROB40
TEMPO 1408/1412 FEW020CB
PROB30
TEMPO 1410/1412 23020G40KT TSRA SCT015CB
ATIS : +33 1 48 62 43 92
Pas de NOTAMs connus pour ce terrain.



MET'MAP, la Météo Aéronautique d'un coup d'oeil ! - Copyright ORBIFLY Décembre 2007 - Disclaimer

ORBIFLY MET'MAP TEAM :

Programmation & Développement : Alexandra Zaïnal
Conception & Développement : Baudouin d'Aumeries
Co-Programmation & Développement : Marc-Olivier Méhu
Soutien technique & logistique : Manuel Goepfert

Contact : metmap@orbifly.com




SOURCES & CREDITS :

   NOAA